North Prairie, Texas
Current Conditions -  °F | °C
As of 10:35 AM on Saturday 25 Oct 2014 (Local Time) from KPWG Reporting Station
Clear Clear  
Wind Chill: 77°   Ceiling: Unl
Heat Index: 79°   Visibility: 10mi
Dew Point: 59°   Wind: 10mph
Humidity: 54%   Direction: 200°SSW
Pressure: 30.19"   Gusts: NA
Location:  31.2985°N, 97.112°W
Report Text: KPWG 251535Z AUTO 20009KT 10SM CLR 25/15 A3019 RMK AO1
Loading
Personal Weather Stations






























Interactive Weather Map
Tropical Storm Tracking
New forecast layout! Learn more

10-Day Weather Forecast

Advertisements
Track Severe Weather on mobile